sensor_id;sensor_type;location;lat;lon;timestamp;pressure;altitude;pressure_sealevel;temperature;humidity
56042;BME280;48756;41.374;2.066;2023-02-10T00:01:39;103051.91;;;9.01;60.58
56042;BME280;48756;41.374;2.066;2023-02-10T00:04:05;103042.25;;;8.97;60.39
56042;BME280;48756;41.374;2.066;2023-02-10T00:06:31;103046.38;;;8.90;60.98
56042;BME280;48756;41.374;2.066;2023-02-10T00:08:58;103038.97;;;8.53;61.62
56042;BME280;48756;41.374;2.066;2023-02-10T00:11:26;103039.91;;;8.55;60.53
56042;BME280;48756;41.374;2.066;2023-02-10T00:14:12;103037.88;;;8.70;60.50
56042;BME280;48756;41.374;2.066;2023-02-10T00:16:38;103035.16;;;8.67;60.88
56042;BME280;48756;41.374;2.066;2023-02-10T00:19:04;103039.44;;;8.65;60.83
56042;BME280;48756;41.374;2.066;2023-02-10T00:21:29;103042.97;;;8.43;60.42
56042;BME280;48756;41.374;2.066;2023-02-10T00:23:55;103042.38;;;8.50;61.97
56042;BME280;48756;41.374;2.066;2023-02-10T00:26:21;103043.81;;;8.42;61.81
56042;BME280;48756;41.374;2.066;2023-02-10T00:28:50;103051.47;;;7.93;62.62
56042;BME280;48756;41.374;2.066;2023-02-10T00:31:16;103040.09;;;7.68;63.65
56042;BME280;48756;41.374;2.066;2023-02-10T00:33:44;103045.00;;;8.06;63.06
56042;BME280;48756;41.374;2.066;2023-02-10T00:36:14;103041.69;;;8.10;62.60
56042;BME280;48756;41.374;2.066;2023-02-10T00:38:41;103038.47;;;8.15;62.28
56042;BME280;48756;41.374;2.066;2023-02-10T00:41:12;103037.72;;;7.95;63.27
56042;BME280;48756;41.374;2.066;2023-02-10T00:43:38;103032.25;;;7.89;64.27
56042;BME280;48756;41.374;2.066;2023-02-10T00:46:12;103041.13;;;7.72;64.37
56042;BME280;48756;41.374;2.066;2023-02-10T00:48:38;103037.81;;;7.76;63.84
56042;BME280;48756;41.374;2.066;2023-02-10T00:51:03;103036.63;;;7.90;63.24
56042;BME280;48756;41.374;2.066;2023-02-10T00:53:29;103036.81;;;8.17;63.86
56042;BME280;48756;41.374;2.066;2023-02-10T00:55:55;103035.09;;;8.18;63.31
56042;BME280;48756;41.374;2.066;2023-02-10T00:58:21;103033.72;;;8.05;62.24
56042;BME280;48756;41.374;2.066;2023-02-10T01:00:47;103040.88;;;7.88;62.91
56042;BME280;48756;41.374;2.066;2023-02-10T01:03:13;103039.38;;;7.93;63.38
56042;BME280;48756;41.374;2.066;2023-02-10T01:05:38;103047.53;;;8.04;63.65
56042;BME280;48756;41.374;2.066;2023-02-10T01:08:04;103030.81;;;7.96;64.45
56042;BME280;48756;41.374;2.066;2023-02-10T01:10:31;103039.81;;;7.83;65.25
56042;BME280;48756;41.374;2.066;2023-02-10T01:13:00;103038.75;;;7.56;64.01
56042;BME280;48756;41.374;2.066;2023-02-10T01:15:26;103044.59;;;7.50;64.08
56042;BME280;48756;41.374;2.066;2023-02-10T01:17:52;103041.13;;;7.72;63.87
56042;BME280;48756;41.374;2.066;2023-02-10T01:20:18;103047.50;;;7.80;63.34
56042;BME280;48756;41.374;2.066;2023-02-10T01:22:43;103047.88;;;7.68;62.32
56042;BME280;48756;41.374;2.066;2023-02-10T01:25:09;103047.78;;;7.45;62.85
56042;BME280;48756;41.374;2.066;2023-02-10T01:27:34;103045.72;;;7.36;63.78
56042;BME280;48756;41.374;2.066;2023-02-10T01:30:00;103043.88;;;7.54;63.92
56042;BME280;48756;41.374;2.066;2023-02-10T01:32:26;103036.25;;;7.59;63.44
56042;BME280;48756;41.374;2.066;2023-02-10T01:34:51;103046.13;;;7.24;64.12
56042;BME280;48756;41.374;2.066;2023-02-10T01:37:17;103043.53;;;7.24;65.07
56042;BME280;48756;41.374;2.066;2023-02-10T01:39:43;103040.03;;;7.24;65.77
56042;BME280;48756;41.374;2.066;2023-02-10T01:42:12;103035.06;;;7.28;65.11
56042;BME280;48756;41.374;2.066;2023-02-10T01:47:04;103034.88;;;7.46;63.86
56042;BME280;48756;41.374;2.066;2023-02-10T01:49:34;103047.56;;;7.38;66.69
56042;BME280;48756;41.374;2.066;2023-02-10T01:52:11;103052.09;;;7.44;68.48
56042;BME280;48756;41.374;2.066;2023-02-10T01:55:05;103043.19;;;7.37;67.51
56042;BME280;48756;41.374;2.066;2023-02-10T01:57:33;103038.06;;;7.39;66.27
56042;BME280;48756;41.374;2.066;2023-02-10T02:00:00;103043.50;;;7.45;66.02
56042;BME280;48756;41.374;2.066;2023-02-10T02:02:27;103038.13;;;7.41;65.54
56042;BME280;48756;41.374;2.066;2023-02-10T02:05:04;103039.47;;;7.31;66.23
56042;BME280;48756;41.374;2.066;2023-02-10T02:07:33;103043.13;;;7.15;66.39
56042;BME280;48756;41.374;2.066;2023-02-10T02:10:01;103049.06;;;6.92;65.68
56042;BME280;48756;41.374;2.066;2023-02-10T02:12:56;103049.53;;;6.62;67.57
56042;BME280;48756;41.374;2.066;2023-02-10T02:26:36;103042.31;;;7.16;66.13
56042;BME280;48756;41.374;2.066;2023-02-10T02:32:08;103054.44;;;7.17;67.26
56042;BME280;48756;41.374;2.066;2023-02-10T02:34:56;103056.06;;;6.94;68.54
56042;BME280;48756;41.374;2.066;2023-02-10T02:37:31;103061.78;;;7.06;69.71
56042;BME280;48756;41.374;2.066;2023-02-10T02:39:58;103057.66;;;6.91;71.10
56042;BME280;48756;41.374;2.066;2023-02-10T02:42:26;103057.44;;;7.05;69.16
56042;BME280;48756;41.374;2.066;2023-02-10T02:44:56;103057.34;;;6.83;71.40
56042;BME280;48756;41.374;2.066;2023-02-10T03:00:42;103045.63;;;6.72;68.80
56042;BME280;48756;41.374;2.066;2023-02-10T03:03:09;103044.38;;;6.83;68.01
56042;BME280;48756;41.374;2.066;2023-02-10T03:05:35;103039.91;;;6.79;68.77
56042;BME280;48756;41.374;2.066;2023-02-10T03:08:01;103047.16;;;6.88;68.81
56042;BME280;48756;41.374;2.066;2023-02-10T03:10:26;103045.78;;;6.36;70.38
56042;BME280;48756;41.374;2.066;2023-02-10T03:12:52;103043.03;;;6.33;70.53
56042;BME280;48756;41.374;2.066;2023-02-10T03:15:18;103036.75;;;6.09;69.83
56042;BME280;48756;41.374;2.066;2023-02-10T03:17:47;103033.88;;;6.03;71.70
56042;BME280;48756;41.374;2.066;2023-02-10T03:20:12;103034.03;;;6.06;71.68
56042;BME280;48756;41.374;2.066;2023-02-10T03:22:38;103030.56;;;6.05;71.18
56042;BME280;48756;41.374;2.066;2023-02-10T03:25:04;103031.41;;;6.43;70.16
56042;BME280;48756;41.374;2.066;2023-02-10T03:27:29;103046.56;;;6.55;70.06
56042;BME280;48756;41.374;2.066;2023-02-10T03:29:55;103038.41;;;6.45;69.30
56042;BME280;48756;41.374;2.066;2023-02-10T03:32:24;103045.09;;;6.40;70.23
56042;BME280;48756;41.374;2.066;2023-02-10T03:34:50;103043.75;;;5.92;71.49
56042;BME280;48756;41.374;2.066;2023-02-10T03:37:15;103042.59;;;6.05;72.15
56042;BME280;48756;41.374;2.066;2023-02-10T03:39:41;103038.75;;;6.14;71.16
56042;BME280;48756;41.374;2.066;2023-02-10T03:42:06;103040.25;;;6.29;71.44
56042;BME280;48756;41.374;2.066;2023-02-10T03:44:33;103038.19;;;6.02;71.87
56042;BME280;48756;41.374;2.066;2023-02-10T03:46:58;103037.78;;;6.32;71.31
56042;BME280;48756;41.374;2.066;2023-02-10T03:49:24;103030.25;;;6.36;69.70
56042;BME280;48756;41.374;2.066;2023-02-10T03:51:49;103028.44;;;6.55;70.16
56042;BME280;48756;41.374;2.066;2023-02-10T03:54:15;103024.44;;;6.61;69.61
56042;BME280;48756;41.374;2.066;2023-02-10T03:56:40;103020.84;;;6.58;70.17
56042;BME280;48756;41.374;2.066;2023-02-10T03:59:06;103023.63;;;6.62;69.89
56042;BME280;48756;41.374;2.066;2023-02-10T04:01:32;103024.56;;;6.64;70.43
56042;BME280;48756;41.374;2.066;2023-02-10T04:03:58;103022.38;;;6.54;70.50
56042;BME280;48756;41.374;2.066;2023-02-10T04:06:24;103021.50;;;6.54;70.40
56042;BME280;48756;41.374;2.066;2023-02-10T04:08:50;103027.03;;;6.61;69.84
56042;BME280;48756;41.374;2.066;2023-02-10T04:11:16;103027.47;;;6.72;69.69
56042;BME280;48756;41.374;2.066;2023-02-10T04:13:41;103026.41;;;6.67;69.00
56042;BME280;48756;41.374;2.066;2023-02-10T04:16:09;103029.50;;;6.58;69.80
56042;BME280;48756;41.374;2.066;2023-02-10T04:18:35;103036.44;;;6.59;69.83
56042;BME280;48756;41.374;2.066;2023-02-10T04:21:03;103044.28;;;6.61;70.12
56042;BME280;48756;41.374;2.066;2023-02-10T04:23:29;103035.19;;;6.51;69.85
56042;BME280;48756;41.374;2.066;2023-02-10T04:25:55;103038.81;;;6.55;69.99
56042;BME280;48756;41.374;2.066;2023-02-10T04:28:21;103043.41;;;6.60;70.62
56042;BME280;48756;41.374;2.066;2023-02-10T04:30:53;103048.53;;;6.02;73.62
56042;BME280;48756;41.374;2.066;2023-02-10T04:33:23;103049.56;;;6.06;73.40
56042;BME280;48756;41.374;2.066;2023-02-10T04:35:50;103056.94;;;6.16;71.77
56042;BME280;48756;41.374;2.066;2023-02-10T04:38:16;103058.97;;;6.04;73.00
56042;BME280;48756;41.374;2.066;2023-02-10T04:40:42;103055.72;;;5.72;73.66
56042;BME280;48756;41.374;2.066;2023-02-10T04:43:09;103052.47;;;5.76;74.77
56042;BME280;48756;41.374;2.066;2023-02-10T04:45:34;103060.75;;;5.69;74.99
56042;BME280;48756;41.374;2.066;2023-02-10T04:48:00;103057.28;;;5.69;75.64
56042;BME280;48756;41.374;2.066;2023-02-10T04:50:25;103056.53;;;5.71;76.20
56042;BME280;48756;41.374;2.066;2023-02-10T04:52:51;103050.03;;;5.79;74.67
56042;BME280;48756;41.374;2.066;2023-02-10T04:55:16;103051.94;;;5.83;74.96
56042;BME280;48756;41.374;2.066;2023-02-10T04:57:45;103047.78;;;5.87;74.30
56042;BME280;48756;41.374;2.066;2023-02-10T05:00:11;103046.44;;;6.13;73.21
56042;BME280;48756;41.374;2.066;2023-02-10T05:02:37;103048.59;;;6.04;73.56
56042;BME280;48756;41.374;2.066;2023-02-10T05:05:03;103045.72;;;5.80;75.54
56042;BME280;48756;41.374;2.066;2023-02-10T05:07:29;103045.59;;;5.77;74.33
56042;BME280;48756;41.374;2.066;2023-02-10T05:09:54;103051.22;;;5.50;75.41
56042;BME280;48756;41.374;2.066;2023-02-10T05:12:20;103045.16;;;5.68;76.17
56042;BME280;48756;41.374;2.066;2023-02-10T05:14:45;103052.13;;;5.88;73.75
56042;BME280;48756;41.374;2.066;2023-02-10T05:17:11;103052.44;;;6.31;73.05
56042;BME280;48756;41.374;2.066;2023-02-10T05:19:36;103051.28;;;6.44;72.80
56042;BME280;48756;41.374;2.066;2023-02-10T05:22:02;103053.25;;;6.50;72.10
56042;BME280;48756;41.374;2.066;2023-02-10T05:24:27;103058.13;;;6.61;72.20
56042;BME280;48756;41.374;2.066;2023-02-10T05:26:53;103064.81;;;6.37;71.66
56042;BME280;48756;41.374;2.066;2023-02-10T05:29:18;103061.47;;;6.39;71.91
56042;BME280;48756;41.374;2.066;2023-02-10T05:31:44;103067.16;;;6.52;71.88
56042;BME280;48756;41.374;2.066;2023-02-10T05:34:10;103069.84;;;6.34;71.86
56042;BME280;48756;41.374;2.066;2023-02-10T05:36:35;103075.41;;;6.24;73.14
56042;BME280;48756;41.374;2.066;2023-02-10T05:39:01;103077.00;;;6.02;73.97
56042;BME280;48756;41.374;2.066;2023-02-10T05:41:45;103066.09;;;5.90;75.22
56042;BME280;48756;41.374;2.066;2023-02-10T05:44:10;103071.38;;;5.58;76.16
56042;BME280;48756;41.374;2.066;2023-02-10T05:46:36;103075.97;;;5.45;76.77
56042;BME280;48756;41.374;2.066;2023-02-10T05:49:02;103085.06;;;5.55;77.57
56042;BME280;48756;41.374;2.066;2023-02-10T05:51:27;103081.28;;;5.48;76.44
56042;BME280;48756;41.374;2.066;2023-02-10T05:53:53;103094.47;;;5.19;78.45
56042;BME280;48756;41.374;2.066;2023-02-10T05:56:19;103102.28;;;5.03;79.01
56042;BME280;48756;41.374;2.066;2023-02-10T05:58:45;103104.50;;;4.97;79.45
56042;BME280;48756;41.374;2.066;2023-02-10T06:01:10;103103.81;;;4.83;79.67
56042;BME280;48756;41.374;2.066;2023-02-10T06:03:36;103100.44;;;4.84;80.49
56042;BME280;48756;41.374;2.066;2023-02-10T06:06:02;103106.72;;;4.73;80.50
56042;BME280;48756;41.374;2.066;2023-02-10T06:08:27;103103.75;;;5.15;79.15
56042;BME280;48756;41.374;2.066;2023-02-10T06:10:53;103102.50;;;5.59;77.05
56042;BME280;48756;41.374;2.066;2023-02-10T06:13:20;103101.25;;;6.04;75.95
56042;BME280;48756;41.374;2.066;2023-02-10T06:15:45;103093.94;;;5.78;76.70
56042;BME280;48756;41.374;2.066;2023-02-10T06:18:11;103102.44;;;5.75;76.27
56042;BME280;48756;41.374;2.066;2023-02-10T06:20:36;103098.13;;;5.58;78.16
56042;BME280;48756;41.374;2.066;2023-02-10T06:23:02;103092.75;;;5.89;77.28
56042;BME280;48756;41.374;2.066;2023-02-10T06:25:27;103103.97;;;5.54;79.01
56042;BME280;48756;41.374;2.066;2023-02-10T06:27:53;103106.56;;;5.54;77.41
56042;BME280;48756;41.374;2.066;2023-02-10T06:30:19;103112.88;;;5.43;78.17
56042;BME280;48756;41.374;2.066;2023-02-10T06:32:45;103097.31;;;5.59;78.17
56042;BME280;48756;41.374;2.066;2023-02-10T06:35:11;103109.75;;;5.66;77.14
56042;BME280;48756;41.374;2.066;2023-02-10T06:37:36;103111.75;;;5.72;77.53
56042;BME280;48756;41.374;2.066;2023-02-10T06:40:04;103118.47;;;5.68;75.76
56042;BME280;48756;41.374;2.066;2023-02-10T06:42:29;103120.75;;;5.62;78.48
56042;BME280;48756;41.374;2.066;2023-02-10T06:44:55;103120.09;;;5.66;77.13
56042;BME280;48756;41.374;2.066;2023-02-10T06:47:21;103123.63;;;5.50;78.32
56042;BME280;48756;41.374;2.066;2023-02-10T06:49:46;103120.22;;;5.17;79.53
56042;BME280;48756;41.374;2.066;2023-02-10T06:52:12;103117.78;;;5.54;77.59
56042;BME280;48756;41.374;2.066;2023-02-10T06:54:38;103116.75;;;5.17;79.28
56042;BME280;48756;41.374;2.066;2023-02-10T06:57:04;103116.47;;;5.45;79.38
56042;BME280;48756;41.374;2.066;2023-02-10T06:59:29;103117.75;;;5.71;77.59
56042;BME280;48756;41.374;2.066;2023-02-10T07:01:55;103112.78;;;5.75;76.74
56042;BME280;48756;41.374;2.066;2023-02-10T07:04:27;103112.41;;;5.85;77.45
56042;BME280;48756;41.374;2.066;2023-02-10T07:06:52;103115.00;;;5.68;76.59
56042;BME280;48756;41.374;2.066;2023-02-10T07:09:18;103124.53;;;5.69;77.20
56042;BME280;48756;41.374;2.066;2023-02-10T07:11:43;103130.44;;;5.48;78.77
56042;BME280;48756;41.374;2.066;2023-02-10T07:14:09;103127.03;;;5.49;79.02
56042;BME280;48756;41.374;2.066;2023-02-10T07:16:34;103131.69;;;5.57;78.92
56042;BME280;48756;41.374;2.066;2023-02-10T07:19:00;103130.69;;;5.37;78.56
56042;BME280;48756;41.374;2.066;2023-02-10T07:21:30;103136.69;;;5.36;79.29
56042;BME280;48756;41.374;2.066;2023-02-10T07:23:56;103132.06;;;5.64;76.95
56042;BME280;48756;41.374;2.066;2023-02-10T07:26:21;103130.28;;;5.81;77.67
56042;BME280;48756;41.374;2.066;2023-02-10T07:28:47;103137.38;;;5.85;77.84
56042;BME280;48756;41.374;2.066;2023-02-10T07:31:13;103133.38;;;5.90;77.25
56042;BME280;48756;41.374;2.066;2023-02-10T07:33:39;103141.59;;;5.83;77.73
56042;BME280;48756;41.374;2.066;2023-02-10T07:36:04;103135.63;;;5.66;77.49
56042;BME280;48756;41.374;2.066;2023-02-10T07:38:31;103141.91;;;5.89;77.92
56042;BME280;48756;41.374;2.066;2023-02-10T07:40:57;103144.44;;;6.05;77.60
56042;BME280;48756;41.374;2.066;2023-02-10T07:43:25;103148.97;;;5.92;76.70
56042;BME280;48756;41.374;2.066;2023-02-10T07:45:51;103155.19;;;5.79;77.05
56042;BME280;48756;41.374;2.066;2023-02-10T07:48:17;103152.91;;;5.67;78.42
56042;BME280;48756;41.374;2.066;2023-02-10T07:50:46;103158.09;;;5.67;77.26
56042;BME280;48756;41.374;2.066;2023-02-10T07:53:12;103166.38;;;5.78;78.46
56042;BME280;48756;41.374;2.066;2023-02-10T07:55:38;103165.63;;;5.80;78.42
56042;BME280;48756;41.374;2.066;2023-02-10T07:58:06;103158.19;;;6.04;76.87
56042;BME280;48756;41.374;2.066;2023-02-10T08:00:33;103167.13;;;6.11;76.83
56042;BME280;48756;41.374;2.066;2023-02-10T08:02:58;103159.00;;;6.21;76.70
56042;BME280;48756;41.374;2.066;2023-02-10T08:05:24;103167.97;;;6.47;75.27
56042;BME280;48756;41.374;2.066;2023-02-10T08:07:51;103160.50;;;6.72;74.65
56042;BME280;48756;41.374;2.066;2023-02-10T08:10:17;103169.91;;;6.70;75.09
56042;BME280;48756;41.374;2.066;2023-02-10T08:12:43;103175.50;;;6.60;74.52
56042;BME280;48756;41.374;2.066;2023-02-10T08:15:10;103171.19;;;6.41;75.09
56042;BME280;48756;41.374;2.066;2023-02-10T08:17:37;103177.59;;;6.50;75.68
56042;BME280;48756;41.374;2.066;2023-02-10T08:20:05;103179.75;;;6.40;74.13
56042;BME280;48756;41.374;2.066;2023-02-10T08:22:30;103180.00;;;6.64;75.13
56042;BME280;48756;41.374;2.066;2023-02-10T08:24:56;103181.28;;;6.74;73.52
56042;BME280;48756;41.374;2.066;2023-02-10T08:27:21;103185.81;;;6.97;73.26
56042;BME280;48756;41.374;2.066;2023-02-10T08:29:50;103189.03;;;6.92;72.35
56042;BME280;48756;41.374;2.066;2023-02-10T08:32:15;103194.06;;;6.69;73.22
56042;BME280;48756;41.374;2.066;2023-02-10T08:34:48;103190.94;;;6.96;71.61
56042;BME280;48756;41.374;2.066;2023-02-10T08:37:14;103190.75;;;7.51;69.88
56042;BME280;48756;41.374;2.066;2023-02-10T08:39:40;103192.22;;;7.46;68.76
56042;BME280;48756;41.374;2.066;2023-02-10T08:42:06;103192.00;;;7.60;68.92
56042;BME280;48756;41.374;2.066;2023-02-10T08:44:32;103189.66;;;7.66;68.93
56042;BME280;48756;41.374;2.066;2023-02-10T08:47:00;103193.13;;;7.88;69.72
56042;BME280;48756;41.374;2.066;2023-02-10T08:49:25;103213.41;;;7.76;69.83
56042;BME280;48756;41.374;2.066;2023-02-10T08:51:52;103194.69;;;8.26;68.36
56042;BME280;48756;41.374;2.066;2023-02-10T08:54:18;103195.72;;;8.52;65.91
56042;BME280;48756;41.374;2.066;2023-02-10T08:56:44;103207.03;;;8.32;67.54
56042;BME280;48756;41.374;2.066;2023-02-10T08:59:11;103208.06;;;8.35;67.06
56042;BME280;48756;41.374;2.066;2023-02-10T09:01:37;103206.72;;;8.67;65.45
56042;BME280;48756;41.374;2.066;2023-02-10T09:04:02;103212.38;;;9.27;63.18
56042;BME280;48756;41.374;2.066;2023-02-10T09:06:39;103206.13;;;8.98;62.30
56042;BME280;48756;41.374;2.066;2023-02-10T09:09:08;103206.50;;;8.61;64.28
56042;BME280;48756;41.374;2.066;2023-02-10T09:11:34;103206.94;;;8.73;64.80
56042;BME280;48756;41.374;2.066;2023-02-10T09:14:00;103204.78;;;8.62;66.27
56042;BME280;48756;41.374;2.066;2023-02-10T09:16:25;103205.19;;;8.50;65.69
56042;BME280;48756;41.374;2.066;2023-02-10T09:18:51;103208.31;;;8.64;65.04
56042;BME280;48756;41.374;2.066;2023-02-10T09:21:17;103208.38;;;8.65;65.39
56042;BME280;48756;41.374;2.066;2023-02-10T09:23:42;103208.94;;;8.36;65.18
56042;BME280;48756;41.374;2.066;2023-02-10T09:26:08;103212.69;;;9.11;63.88
56042;BME280;48756;41.374;2.066;2023-02-10T09:28:34;103208.03;;;8.80;64.77
56042;BME280;48756;41.374;2.066;2023-02-10T09:30:59;103209.19;;;8.86;65.57
56042;BME280;48756;41.374;2.066;2023-02-10T09:33:25;103208.25;;;8.84;63.93
56042;BME280;48756;41.374;2.066;2023-02-10T09:35:51;103211.09;;;8.92;62.86
56042;BME280;48756;41.374;2.066;2023-02-10T09:38:16;103211.84;;;8.88;63.69
56042;BME280;48756;41.374;2.066;2023-02-10T09:49:18;103212.03;;;9.42;61.82
56042;BME280;48756;41.374;2.066;2023-02-10T09:52:06;103207.34;;;9.32;62.00
56042;BME280;48756;41.374;2.066;2023-02-10T09:54:37;103208.03;;;9.28;62.13
56042;BME280;48756;41.374;2.066;2023-02-10T09:57:12;103222.50;;;9.43;62.58
56042;BME280;48756;41.374;2.066;2023-02-10T09:59:41;103210.31;;;9.42;61.74
56042;BME280;48756;41.374;2.066;2023-02-10T10:02:30;103208.94;;;9.52;61.34
56042;BME280;48756;41.374;2.066;2023-02-10T10:04:58;103210.69;;;9.53;62.06
56042;BME280;48756;41.374;2.066;2023-02-10T10:07:33;103208.69;;;9.71;60.79
56042;BME280;48756;41.374;2.066;2023-02-10T10:10:20;103209.59;;;9.97;60.29
56042;BME280;48756;41.374;2.066;2023-02-10T10:12:48;103215.00;;;9.78;60.12
56042;BME280;48756;41.374;2.066;2023-02-10T10:15:18;103214.28;;;9.82;59.92
56042;BME280;48756;41.374;2.066;2023-02-10T10:18:10;103203.91;;;10.37;59.05
56042;BME280;48756;41.374;2.066;2023-02-10T10:20:51;103205.50;;;10.32;58.35
56042;BME280;48756;41.374;2.066;2023-02-10T10:26:07;103205.75;;;10.68;57.79
56042;BME280;48756;41.374;2.066;2023-02-10T10:31:41;103201.97;;;10.87;56.92
56042;BME280;48756;41.374;2.066;2023-02-10T10:34:16;103208.50;;;10.73;57.41
56042;BME280;48756;41.374;2.066;2023-02-10T10:36:47;103203.22;;;11.01;55.85
56042;BME280;48756;41.374;2.066;2023-02-10T10:39:14;103210.69;;;11.19;55.76
56042;BME280;48756;41.374;2.066;2023-02-10T10:41:43;103206.00;;;11.08;55.77
56042;BME280;48756;41.374;2.066;2023-02-10T10:44:16;103204.88;;;11.62;55.02
56042;BME280;48756;41.374;2.066;2023-02-10T10:46:49;103201.53;;;11.68;54.07
56042;BME280;48756;41.374;2.066;2023-02-10T10:49:15;103198.91;;;11.33;55.04
56042;BME280;48756;41.374;2.066;2023-02-10T10:51:41;103204.31;;;11.41;55.05
56042;BME280;48756;41.374;2.066;2023-02-10T10:54:14;103190.31;;;12.07;53.16
56042;BME280;48756;41.374;2.066;2023-02-10T10:56:54;103195.19;;;11.58;54.30
56042;BME280;48756;41.374;2.066;2023-02-10T10:59:29;103197.03;;;11.62;54.83
56042;BME280;48756;41.374;2.066;2023-02-10T11:02:11;103185.91;;;12.04;52.65
56042;BME280;48756;41.374;2.066;2023-02-10T11:04:37;103183.66;;;11.83;53.72
56042;BME280;48756;41.374;2.066;2023-02-10T11:07:18;103174.34;;;11.60;54.12
56042;BME280;48756;41.374;2.066;2023-02-10T11:09:54;103171.72;;;11.27;54.38
56042;BME280;48756;41.374;2.066;2023-02-10T11:12:21;103177.38;;;11.42;53.63
56042;BME280;48756;41.374;2.066;2023-02-10T11:14:50;103173.06;;;12.13;51.73
56042;BME280;48756;41.374;2.066;2023-02-10T11:17:39;103169.91;;;11.56;53.63
56042;BME280;48756;41.374;2.066;2023-02-10T11:20:22;103164.78;;;11.95;51.47
56042;BME280;48756;41.374;2.066;2023-02-10T11:23:17;103152.16;;;11.77;53.42
56042;BME280;48756;41.374;2.066;2023-02-10T11:25:47;103154.16;;;11.87;53.44
56042;BME280;48756;41.374;2.066;2023-02-10T11:28:24;103143.50;;;12.17;52.38
56042;BME280;48756;41.374;2.066;2023-02-10T11:31:01;103142.44;;;12.47;50.64
56042;BME280;48756;41.374;2.066;2023-02-10T11:33:30;103129.38;;;12.47;50.59
56042;BME280;48756;41.374;2.066;2023-02-10T11:36:09;103128.03;;;12.25;50.45
56042;BME280;48756;41.374;2.066;2023-02-10T11:38:39;103132.09;;;12.12;51.88
56042;BME280;48756;41.374;2.066;2023-02-10T11:41:08;103129.13;;;12.36;49.99
56042;BME280;48756;41.374;2.066;2023-02-10T11:43:44;103121.28;;;12.36;49.60
56042;BME280;48756;41.374;2.066;2023-02-10T11:46:28;103118.22;;;12.57;50.35
56042;BME280;48756;41.374;2.066;2023-02-10T11:49:04;103116.53;;;12.59;49.35
56042;BME280;48756;41.374;2.066;2023-02-10T11:51:34;103116.50;;;12.57;50.15
56042;BME280;48756;41.374;2.066;2023-02-10T11:54:00;103104.41;;;13.11;48.89
56042;BME280;48756;41.374;2.066;2023-02-10T11:56:44;103097.44;;;13.11;47.89
56042;BME280;48756;41.374;2.066;2023-02-10T11:59:43;103083.38;;;13.55;47.24
56042;BME280;48756;41.374;2.066;2023-02-10T12:05:21;103079.13;;;13.11;49.33
56042;BME280;48756;41.374;2.066;2023-02-10T12:13:39;103066.91;;;13.12;47.57
56042;BME280;48756;41.374;2.066;2023-02-10T12:18:58;103052.56;;;13.97;45.90
56042;BME280;48756;41.374;2.066;2023-02-10T12:31:47;103054.63;;;13.08;47.30
56042;BME280;48756;41.374;2.066;2023-02-10T12:37:13;103038.22;;;13.71;46.74
56042;BME280;48756;41.374;2.066;2023-02-10T12:46:01;103036.63;;;13.23;46.39
56042;BME280;48756;41.374;2.066;2023-02-10T12:56:43;103026.81;;;13.67;46.72
56042;BME280;48756;41.374;2.066;2023-02-10T12:59:31;103022.22;;;14.16;46.75
56042;BME280;48756;41.374;2.066;2023-02-10T13:02:12;103016.91;;;14.10;46.25
56042;BME280;48756;41.374;2.066;2023-02-10T13:05:07;103023.31;;;13.67;46.67
56042;BME280;48756;41.374;2.066;2023-02-10T13:10:22;103004.34;;;13.83;47.69
56042;BME280;48756;41.374;2.066;2023-02-10T13:12:53;103005.00;;;13.68;46.26
56042;BME280;48756;41.374;2.066;2023-02-10T13:15:31;103004.28;;;13.21;47.63
56042;BME280;48756;41.374;2.066;2023-02-10T13:18:00;103005.25;;;13.28;47.37
56042;BME280;48756;41.374;2.066;2023-02-10T13:23:13;103001.44;;;13.09;46.57
56042;BME280;48756;41.374;2.066;2023-02-10T13:28:39;103001.94;;;14.01;46.88
56042;BME280;48756;41.374;2.066;2023-02-10T13:39:30;102997.13;;;14.36;49.07
56042;BME280;48756;41.374;2.066;2023-02-10T13:42:24;102996.22;;;14.36;49.79
56042;BME280;48756;41.374;2.066;2023-02-10T13:45:06;102993.13;;;13.96;49.65
56042;BME280;48756;41.374;2.066;2023-02-10T13:52:56;102980.94;;;14.00;49.26
56042;BME280;48756;41.374;2.066;2023-02-10T13:57:59;102984.78;;;14.26;50.52
56042;BME280;48756;41.374;2.066;2023-02-10T14:00:46;102979.94;;;13.89;50.49
56042;BME280;48756;41.374;2.066;2023-02-10T14:08:37;102973.88;;;13.93;50.19
56042;BME280;48756;41.374;2.066;2023-02-10T14:13:57;102979.19;;;13.99;51.02
56042;BME280;48756;41.374;2.066;2023-02-10T14:16:41;102977.88;;;13.65;51.48
56042;BME280;48756;41.374;2.066;2023-02-10T14:19:29;102979.69;;;13.69;52.50
56042;BME280;48756;41.374;2.066;2023-02-10T14:21:59;102977.34;;;13.92;52.20
56042;BME280;48756;41.374;2.066;2023-02-10T14:24:33;102966.34;;;13.54;51.82
56042;BME280;48756;41.374;2.066;2023-02-10T14:27:05;102973.88;;;13.29;52.71
56042;BME280;48756;41.374;2.066;2023-02-10T14:29:34;102968.75;;;13.35;52.55
56042;BME280;48756;41.374;2.066;2023-02-10T14:32:01;102971.03;;;13.17;53.22
56042;BME280;48756;41.374;2.066;2023-02-10T14:34:33;102973.19;;;13.41;53.09
56042;BME280;48756;41.374;2.066;2023-02-10T14:37:15;102966.66;;;13.16;52.68
56042;BME280;48756;41.374;2.066;2023-02-10T14:39:52;102968.28;;;13.65;51.90
56042;BME280;48756;41.374;2.066;2023-02-10T14:42:18;102967.16;;;13.46;53.06
56042;BME280;48756;41.374;2.066;2023-02-10T14:44:48;102966.31;;;13.51;53.26
56042;BME280;48756;41.374;2.066;2023-02-10T14:47:20;102970.59;;;13.44;52.92
56042;BME280;48756;41.374;2.066;2023-02-10T14:49:53;102973.13;;;13.38;52.87
56042;BME280;48756;41.374;2.066;2023-02-10T14:52:24;102964.13;;;13.19;53.19
56042;BME280;48756;41.374;2.066;2023-02-10T14:54:50;102959.28;;;12.91;53.60
56042;BME280;48756;41.374;2.066;2023-02-10T14:57:21;102953.13;;;12.88;53.76
56042;BME280;48756;41.374;2.066;2023-02-10T14:59:58;102956.69;;;12.92;54.28
56042;BME280;48756;41.374;2.066;2023-02-10T15:02:26;102966.34;;;12.96;53.40
56042;BME280;48756;41.374;2.066;2023-02-10T15:04:55;102957.69;;;13.00;53.70